Time;durP1;ratioP1;P1;durP2;ratioP2;P2;SDS_P1;SDS_P2;PMS_P1;PMS_P2;Temp;Humidity;BMP_temperature;BMP_pressure;BME280_temperature;BME280_humidity;BME280_pressure;Samples;Min_cycle;Max_cycle;Signal;HPM_P1;HPM_P2
2022/06/22 00:00:30;;;;;;;3.77;1.07;;;;;;;11.29;71.93;100354.04;1770571;80;21081;-78
2022/06/22 00:02:59;;;;;;;1.57;1.00;;;;;;;11.24;72.00;100359.92;1778890;79;21292;-79
2022/06/22 00:05:52;;;;;;;3.63;1.33;;;;;;;11.20;72.01;100354.42;1781495;80;21514;-80
2022/06/22 00:08:23;;;;;;;4.60;1.00;;;;;;;11.15;72.07;100358.99;1779768;80;20985;-77
2022/06/22 00:11:06;;;;;;;2.43;1.17;;;;;;;11.11;72.15;100360.02;1781202;80;21016;-78
2022/06/22 00:13:34;;;;;;;2.00;1.20;;;;;;;11.03;72.04;100366.91;1781272;80;21052;-78
2022/06/22 00:16:06;;;;;;;3.10;1.10;;;;;;;10.96;72.14;100368.05;1781343;80;21482;-78
2022/06/22 00:18:41;;;;;;;1.40;1.00;;;;;;;10.91;72.21;100375.23;1736856;82;21160;-78
2022/06/22 00:21:23;;;;;;;2.23;1.30;;;;;;;10.86;72.33;100375.86;1707718;83;21066;-78
2022/06/22 00:23:55;;;;;;;2.47;1.20;;;;;;;10.82;72.51;100375.59;1716062;82;21522;-79
2022/06/22 00:26:31;;;;;;;5.30;1.47;;;;;;;10.79;72.71;100377.88;1736746;82;21062;-79
2022/06/22 00:29:10;;;;;;;2.20;1.30;;;;;;;10.77;72.87;100372.29;1736352;81;21050;-79
2022/06/22 00:31:44;;;;;;;2.27;1.40;;;;;;;10.75;73.06;100370.17;1735680;82;21304;-79
2022/06/22 00:34:16;;;;;;;2.30;1.13;;;;;;;10.75;73.26;100370.17;1734870;81;21003;-79
2022/06/22 00:37:01;;;;;;;3.30;1.50;;;;;;;10.72;73.27;100361.97;1717173;82;21056;-78
2022/06/22 00:39:41;;;;;;;2.93;1.57;;;;;;;10.68;73.13;100361.23;1736704;81;21007;-77
2022/06/22 00:42:14;;;;;;;;;;;;;;;10.61;73.14;100359.75;1730805;82;21033;-79
2022/06/22 00:45:05;;;;;;;2.07;1.50;;;;;;;10.58;73.51;100358.56;1777370;79;21225;-78
2022/06/22 00:47:38;;;;;;;2.40;1.60;;;;;;;10.55;73.45;100372.24;1781000;80;21024;-79
2022/06/22 00:50:19;;;;;;;3.33;1.70;;;;;;;10.52;73.42;100371.91;1781179;80;21057;-79
2022/06/22 00:53:15;;;;;;;2.70;1.70;;;;;;;10.51;73.82;100374.59;1781475;80;21499;-79
2022/06/22 00:55:56;;;;;;;2.03;1.40;;;;;;;10.53;73.82;100367.08;1780804;80;20989;-78
2022/06/22 00:58:31;;;;;;;3.13;1.27;;;;;;;10.50;73.72;100363.23;1779354;80;21253;-79
2022/06/22 01:01:19;;;;;;;4.30;1.47;;;;;;;10.44;73.77;100357.77;1781032;80;21064;-79
2022/06/22 01:03:57;;;;;;;4.20;1.50;;;;;;;10.39;73.54;100362.34;1774197;78;20983;-78
2022/06/22 01:06:56;;;;;;;2.30;1.63;;;;;;;10.34;73.62;100366.90;1772015;78;20925;-77
2022/06/22 01:09:43;;;;;;;3.23;1.50;;;;;;;10.31;73.83;100366.13;1784888;80;21041;-78
2022/06/22 01:12:33;;;;;;;2.60;1.50;;;;;;;10.26;73.84;100360.59;1783285;78;21070;-78
2022/06/22 01:15:12;;;;;;;4.53;1.22;;;;;;;10.23;73.94;100359.39;1782892;79;21091;-79
2022/06/22 01:18:06;;;;;;;2.83;1.70;;;;;;;10.18;73.96;100352.61;1723539;81;21550;-79
2022/06/22 01:21:00;;;;;;;5.43;1.70;;;;;;;10.14;74.08;100351.88;1730921;81;21545;-78
2022/06/22 01:23:39;;;;;;;2.77;1.50;;;;;;;10.12;74.18;100362.00;1730146;81;21010;-79
2022/06/22 01:26:43;;;;;;;4.50;1.33;;;;;;;10.07;74.15;100349.53;1754398;81;21107;-80
2022/06/22 01:29:18;;;;;;;3.40;1.50;;;;;;;10.02;74.29;100347.91;1754128;81;20978;-79
2022/06/22 01:32:08;;;;;;;3.13;1.40;;;;;;;10.00;74.33;100342.32;1753861;81;21052;-79
2022/06/22 01:34:41;;;;;;;1.90;1.20;;;;;;;9.93;74.16;100343.47;1709237;83;21074;-78
2022/06/22 01:37:22;;;;;;;2.73;1.40;;;;;;;9.88;74.39;100339.69;1754478;81;21561;-78
2022/06/22 01:39:52;;;;;;;3.40;1.70;;;;;;;9.86;74.28;100344.12;1725717;81;21199;-79
2022/06/22 01:42:27;;;;;;;2.53;1.27;;;;;;;9.78;74.24;100340.48;1731590;81;21003;-79
2022/06/22 01:45:08;;;;;;;1.87;1.20;;;;;;;9.74;74.42;100337.55;1720332;82;21039;-79
2022/06/22 01:47:57;;;;;;;2.57;1.50;;;;;;;9.73;74.67;100340.24;1750055;81;21062;-79
2022/06/22 01:51:00;;;;;;;3.27;1.40;;;;;;;9.75;74.88;100347.10;1726683;81;21861;-79
2022/06/22 01:53:35;;;;;;;2.97;1.40;;;;;;;9.74;74.67;100349.80;1693182;84;21290;-79
2022/06/22 01:56:28;;;;;;;4.97;1.60;;;;;;;9.67;74.60;100350.89;1701573;84;21066;-78
2022/06/22 01:59:49;;;;;;;2.57;1.47;;;;;;;9.62;74.74;100355.00;1686392;84;21018;-79
2022/06/22 02:02:27;;;;;;;2.70;1.27;;;;;;;9.58;74.80;100352.06;1666272;83;21078;-80
2022/06/22 02:05:21;;;;;;;2.60;1.27;;;;;;;9.54;75.03;100349.16;1670623;84;21109;-79
2022/06/22 02:07:57;;;;;;;1.60;1.30;;;;;;;9.55;75.28;100353.48;1679810;84;21114;-78
2022/06/22 02:10:48;;;;;;;3.33;1.63;;;;;;;9.57;75.28;100349.06;1691211;84;20948;-79
2022/06/22 02:13:28;;;;;;;2.30;1.50;;;;;;;9.52;75.13;100342.66;1691724;84;21195;-79
2022/06/22 02:16:21;;;;;;;3.23;1.67;;;;;;;9.50;75.26;100344.47;1692294;84;21544;-79
2022/06/22 02:19:02;;;;;;;2.53;1.70;;;;;;;9.49;75.26;100341.92;1691453;84;21792;-80
2022/06/22 02:21:50;;;;;;;2.17;1.97;;;;;;;9.46;75.41;100335.48;1692194;84;21506;-80
2022/06/22 02:24:34;;;;;;;3.30;1.70;;;;;;;9.45;75.37;100337.25;1727896;82;21702;-79
2022/06/22 02:27:22;;;;;;;3.37;1.80;;;;;;;9.40;75.36;100342.23;1747857;80;21484;-80
2022/06/22 02:29:57;;;;;;;3.93;1.93;;;;;;;9.40;75.73;100337.85;1778747;80;20975;-79
2022/06/22 02:32:30;;;;;;;3.23;1.60;;;;;;;9.39;75.74;100337.42;1747327;80;21102;-79
2022/06/22 02:34:58;;;;;;;2.73;1.77;;;;;;;9.36;75.61;100334.92;1761952;80;21194;-79
2022/06/22 02:37:29;;;;;;;2.23;1.60;;;;;;;9.32;75.64;100340.72;1747687;80;21046;-79
2022/06/22 02:40:02;;;;;;;3.13;1.60;;;;;;;9.29;75.68;100339.97;1753653;80;21096;-79
2022/06/22 02:45:21;;;;;;;3.20;2.13;;;;;;;9.22;75.68;100340.60;1770368;80;21487;-79
2022/06/22 02:47:51;;;;;;;1.92;1.60;;;;;;;9.19;75.65;100345.08;1736125;80;21492;-79
2022/06/22 02:50:42;;;;;;;2.90;1.80;;;;;;;9.16;75.79;100349.95;1762006;80;21047;-79
2022/06/22 02:53:25;;;;;;;2.60;1.70;;;;;;;9.15;75.98;100358.72;1708670;80;21061;-78
2022/06/22 02:55:54;;;;;;;4.13;1.73;;;;;;;9.16;76.19;100351.27;1753225;80;21495;-78
2022/06/22 02:58:30;;;;;;;2.83;1.70;;;;;;;9.17;76.25;100350.34;1773715;80;20997;-79
2022/06/22 03:01:12;;;;;;;3.53;1.70;;;;;;;9.18;76.27;100352.54;1757174;80;21123;-78
2022/06/22 03:03:42;;;;;;;11.07;2.10;;;;;;;9.18;76.45;100348.16;1767216;80;21632;-79
2022/06/22 03:06:12;;;;;;;4.10;1.57;;;;;;;9.20;76.36;100348.97;1776627;80;20986;-80
2022/06/22 03:08:40;;;;;;;2.42;1.72;;;;;;;9.19;76.56;100349.86;1772043;80;27417;-81
2022/06/22 03:11:10;;;;;;;2.13;1.53;;;;;;;9.23;76.77;100351.91;1741324;80;21507;-80
2022/06/22 03:13:45;;;;;;;2.40;1.72;;;;;;;9.26;76.75;100351.84;1772007;80;21068;-81
2022/06/22 03:16:33;;;;;;;3.40;1.90;;;;;;;9.23;76.53;100347.98;1750783;80;21066;-81
2022/06/22 03:19:08;;;;;;;2.77;1.70;;;;;;;9.19;76.66;100345.94;1762212;80;21565;-81
2022/06/22 03:21:35;;;;;;;3.07;1.70;;;;;;;9.20;76.78;100344.17;1741409;80;21042;-82
2022/06/22 03:24:13;;;;;;;3.03;1.67;;;;;;;9.18;76.59;100346.84;1770911;80;21037;-81
2022/06/22 03:26:55;;;;;;;4.00;1.60;;;;;;;9.15;76.58;100344.34;1763921;80;21154;-81
2022/06/22 03:29:30;;;;;;;2.20;1.80;;;;;;;9.15;76.94;100342.57;1741487;80;21012;-80
2022/06/22 03:32:26;;;;;;;2.83;1.87;;;;;;;9.23;77.37;100349.30;1763044;80;21530;-81
2022/06/22 03:35:05;;;;;;;6.23;1.70;;;;;;;9.29;77.48;100342.58;1764863;80;21041;-81
2022/06/22 03:37:59;;;;;;;5.50;1.83;;;;;;;9.32;77.39;100348.56;1752845;80;21035;-81
2022/06/22 03:40:40;;;;;;;3.97;1.83;;;;;;;9.32;77.24;100350.33;1701369;83;21116;-81
2022/06/22 03:43:12;;;;;;;3.20;1.77;;;;;;;9.34;77.27;100352.45;1709210;82;21070;-81
2022/06/22 03:45:47;;;;;;;3.37;1.87;;;;;;;9.37;77.69;100343.19;1729933;82;21002;-81
2022/06/22 03:48:29;;;;;;;3.47;1.93;;;;;;;9.46;78.00;100338.95;1707819;83;21076;-81
2022/06/22 03:51:04;;;;;;;3.50;2.30;;;;;;;9.54;78.08;100336.94;1726827;82;21067;-81
2022/06/22 03:53:45;;;;;;;3.63;2.00;;;;;;;9.64;78.39;100324.83;1709954;83;21107;-81
2022/06/22 03:56:17;;;;;;;3.30;1.90;;;;;;;9.70;78.24;100326.80;1712877;83;21111;-81
2022/06/22 03:58:48;;;;;;;3.53;1.83;;;;;;;9.75;78.35;100330.09;1734767;82;21105;-81
2022/06/22 04:01:17;;;;;;;3.40;2.10;;;;;;;9.80;78.26;100322.94;1721634;80;21033;-81
2022/06/22 04:03:45;;;;;;;3.20;2.03;;;;;;;9.85;78.48;100326.71;1723836;82;21070;-81
2022/06/22 04:06:32;;;;;;;3.03;1.80;;;;;;;9.95;78.72;100327.22;1760512;81;21092;-81
2022/06/22 04:09:07;;;;;;;3.40;2.00;;;;;;;10.05;78.69;100326.84;1760041;80;20999;-81
2022/06/22 04:11:54;;;;;;;3.47;1.73;;;;;;;10.12;78.40;100336.66;1751320;81;20988;-81
2022/06/22 04:14:29;;;;;;;3.23;2.40;;;;;;;10.15;78.58;100335.70;1758736;81;21044;-81
2022/06/22 04:17:08;;;;;;;3.17;2.37;;;;;;;10.26;78.78;100334.39;1760001;80;21579;-82
2022/06/22 04:19:42;;;;;;;3.30;2.30;;;;;;;10.39;78.95;100336.58;1760255;80;21541;-81
2022/06/22 04:22:17;;;;;;;3.93;2.63;;;;;;;10.51;78.94;100344.00;1760263;80;21000;-79
2022/06/22 04:24:59;;;;;;;3.97;2.70;;;;;;;10.56;78.85;100342.06;1760367;80;21476;-81
2022/06/22 04:27:34;;;;;;;5.07;3.57;;;;;;;10.67;79.24;100343.81;1760329;81;22264;-80
2022/06/22 04:30:06;;;;;;;6.17;2.70;;;;;;;10.79;79.18;100342.94;1760382;81;21019;-82
2022/06/22 04:32:39;;;;;;;5.30;2.67;;;;;;;10.92;79.39;100348.11;1760457;80;21816;-82
2022/06/22 04:35:37;;;;;;;4.27;2.73;;;;;;;11.01;79.31;100346.43;1760317;80;21020;-82
2022/06/22 04:38:31;;;;;;;5.13;2.73;;;;;;;11.16;79.52;100343.17;1760714;81;21107;-81
2022/06/22 04:41:31;;;;;;;3.40;2.30;;;;;;;11.31;79.20;100340.88;1760418;81;21668;-81
2022/06/22 04:44:06;;;;;;;2.92;2.05;;;;;;;11.45;78.90;100341.62;1760872;81;21007;-82
2022/06/22 04:46:38;;;;;;;4.43;2.50;;;;;;;11.55;78.63;100346.85;1758610;81;21297;-82
2022/06/22 04:49:25;;;;;;;4.57;2.70;;;;;;;11.64;78.65;100341.67;1760570;81;21521;-82
2022/06/22 04:52:01;;;;;;;4.47;2.33;;;;;;;11.72;78.99;100338.27;1760377;80;21249;-82
2022/06/22 04:54:35;;;;;;;3.47;2.00;;;;;;;11.86;79.31;100334.64;1745023;81;21003;-82
2022/06/22 04:57:16;;;;;;;2.62;1.90;;;;;;;12.01;79.25;100337.05;1760281;80;21473;-82
2022/06/22 04:59:44;;;;;;;3.25;1.77;;;;;;;12.16;79.25;100341.61;1760509;80;22081;-82
2022/06/22 05:02:15;;;;;;;2.58;1.67;;;;;;;12.28;78.69;100348.96;1760277;81;21034;-81
2022/06/22 05:04:48;;;;;;;3.57;1.33;;;;;;;12.40;78.64;100350.64;1758938;80;21077;-81
2022/06/22 05:07:47;;;;;;;3.72;1.87;;;;;;;12.53;78.69;100340.43;1758954;80;21112;-82
2022/06/22 05:10:45;;;;;;;3.42;2.20;;;;;;;12.68;78.82;100337.08;1743110;80;21054;-80
2022/06/22 05:13:29;;;;;;;4.83;1.80;;;;;;;12.85;78.65;100338.44;1738793;81;21140;-82
2022/06/22 05:16:00;;;;;;;3.15;1.90;;;;;;;12.98;78.27;100343.98;1754583;81;21746;-81
2022/06/22 05:18:33;;;;;;;5.00;1.95;;;;;;;13.04;77.83;100342.37;1754579;81;21129;-83
2022/06/22 05:21:08;;;;;;;3.70;2.05;;;;;;;13.14;78.06;100343.64;1754708;81;21090;-80
2022/06/22 05:23:36;;;;;;;4.42;2.20;;;;;;;13.25;78.04;100342.27;1754666;81;21058;-81
2022/06/22 05:26:09;;;;;;;3.40;2.10;;;;;;;13.38;78.20;100341.63;1754742;81;21771;-84
2022/06/22 05:28:48;;;;;;;4.85;2.33;;;;;;;13.49;78.41;100335.80;1754369;81;21058;-82
2022/06/22 05:31:23;;;;;;;3.40;2.10;;;;;;;13.65;78.60;100345.57;1753207;80;21280;-81
2022/06/22 05:33:54;;;;;;;6.15;2.72;;;;;;;13.79;78.42;100344.40;1753464;81;21015;-82
2022/06/22 05:36:24;;;;;;;2.65;2.00;;;;;;;13.91;78.44;100348.17;1754738;81;21480;-78
2022/06/22 05:38:54;;;;;;;;;;;;;;;14.00;78.27;100347.25;1756398;80;21096;-80
2022/06/22 05:41:25;;;;;;;;;;;;;;;14.13;78.37;100355.82;1758319;80;20144;-78
2022/06/22 05:43:57;;;;;;;4.75;2.02;;;;;;;14.24;78.61;100354.79;1755958;80;20189;-79
2022/06/22 05:46:23;;;;;;;2.33;2.10;;;;;;;14.35;78.40;100345.84;1753096;80;21074;-76
2022/06/22 05:48:55;;;;;;;5.45;2.47;;;;;;;14.48;78.37;100341.61;1756121;80;21284;-79
2022/06/22 05:51:55;;;;;;;5.15;2.87;;;;;;;14.62;78.20;100344.01;1770345;79;21106;-82
2022/06/22 05:54:37;;;;;;;3.95;1.87;;;;;;;14.73;77.97;100350.39;1753274;80;21513;-76
2022/06/22 05:57:35;;;;;;;3.58;1.65;;;;;;;14.86;77.58;100357.17;1768710;80;21003;-76
2022/06/22 06:00:14;;;;;;;3.33;1.60;;;;;;;15.00;77.19;100361.68;1771940;80;21081;-76
2022/06/22 06:03:08;;;;;;;3.92;1.57;;;;;;;15.13;76.76;100356.09;1756411;79;20983;-77
2022/06/22 06:05:48;;;;;;;5.17;1.72;;;;;;;15.28;76.43;100349.55;1743778;81;21121;-76
2022/06/22 06:08:53;;;;;;;2.65;1.50;;;;;;;15.42;76.01;100354.05;1752754;81;20997;-80
2022/06/22 06:11:25;;;;;;;1.85;1.50;;;;;;;15.56;75.88;100355.41;1728914;81;21035;-78
2022/06/22 06:13:59;;;;;;;4.15;1.27;;;;;;;15.74;75.54;100354.37;1732528;81;21089;-78
2022/06/22 06:16:38;;;;;;;3.20;1.15;;;;;;;15.86;74.66;100350.14;1718986;81;21125;-85
2022/06/22 06:19:07;;;;;;;3.33;1.20;;;;;;;16.01;74.10;100347.03;1694979;81;21121;-76
2022/06/22 06:21:37;;;;;;;2.43;1.00;;;;;;;16.19;73.10;100351.69;1731668;81;21591;-77
2022/06/22 06:24:19;;;;;;;;;;;;;;;16.38;72.40;100352.70;1732766;81;21758;-77
2022/06/22 06:29:51;;;;;;;2.05;0.80;;;;;;;16.69;70.58;100356.48;1702126;81;21031;-77
2022/06/22 06:33:01;;;;;;;3.67;1.02;;;;;;;16.85;69.92;100355.52;1741905;81;21134;-80
2022/06/22 06:35:44;;;;;;;4.10;0.90;;;;;;;16.98;69.29;100356.92;1758074;81;21582;-81
2022/06/22 06:38:45;;;;;;;3.70;1.10;;;;;;;17.12;68.37;100355.06;1754419;81;21030;-82
2022/06/22 06:41:23;;;;;;;4.15;1.02;;;;;;;17.36;67.94;100355.75;1738916;81;21451;-80
2022/06/22 06:43:55;;;;;;;1.80;0.95;;;;;;;17.36;67.94;100355.75;1758200;81;21100;-80
2022/06/22 06:46:39;;;;;;;3.30;1.50;;;;;;;17.47;67.51;100352.39;1750764;81;21755;-78
2022/06/22 06:49:23;;;;;;;2.65;1.27;;;;;;;17.54;66.99;100347.91;1748489;81;21056;-81
2022/06/22 06:51:59;;;;;;;1.70;1.00;;;;;;;17.66;67.08;100350.69;1757329;81;21743;-78
2022/06/22 06:54:36;;;;;;;2.35;1.05;;;;;;;17.79;66.39;100356.42;1757607;80;21054;-77
2022/06/22 06:57:15;;;;;;;3.20;1.00;;;;;;;17.92;66.01;100348.45;1726329;82;21028;-77
2022/06/22 06:59:47;;;;;;;2.67;1.07;;;;;;;18.07;65.78;100354.53;1749220;81;21132;-77
2022/06/22 07:02:38;;;;;;;3.47;1.00;;;;;;;18.21;65.25;100353.58;1748212;81;21081;-77
2022/06/22 07:05:09;;;;;;;2.45;1.02;;;;;;;18.33;64.25;100361.15;1737533;80;21043;-77
2022/06/22 07:07:51;;;;;;;2.05;1.00;;;;;;;18.36;63.47;100353.81;1700339;83;21041;-78
2022/06/22 07:10:23;;;;;;;3.10;1.10;;;;;;;18.39;62.92;100354.92;1736396;81;21012;-78
2022/06/22 07:13:01;;;;;;;4.28;1.05;;;;;;;18.48;62.90;100352.09;1704029;84;21236;-78
2022/06/22 07:15:36;;;;;;;1.60;1.02;;;;;;;18.61;63.00;100350.75;1732450;82;21109;-77
2022/06/22 07:18:36;;;;;;;3.30;0.90;;;;;;;18.77;62.87;100351.39;1735844;82;21015;-76
2022/06/22 07:21:09;;;;;;;2.87;0.93;;;;;;;18.92;62.45;100352.08;1732201;82;21038;-77
2022/06/22 07:23:44;;;;;;;3.50;0.93;;;;;;;19.08;61.99;100350.48;1703747;83;21594;-77
2022/06/22 07:26:31;;;;;;;4.15;0.95;;;;;;;19.22;61.36;100356.11;1732350;82;21066;-76
2022/06/22 07:29:03;;;;;;;2.05;0.82;;;;;;;19.31;60.62;100356.75;1703885;82;21019;-77
2022/06/22 07:31:36;;;;;;;5.12;0.72;;;;;;;19.45;59.92;100359.22;1730025;81;21022;-77
2022/06/22 07:34:11;;;;;;;2.37;0.80;;;;;;;19.50;58.94;100352.23;1731832;82;21085;-77
2022/06/22 07:36:46;;;;;;;1.32;0.55;;;;;;;19.59;58.54;100351.08;1736342;81;21008;-76
2022/06/22 07:39:38;;;;;;;3.45;0.60;;;;;;;19.75;57.98;100364.56;1736239;81;22571;-76
2022/06/22 07:42:07;;;;;;;2.67;0.70;;;;;;;19.86;57.39;100361.92;1700160;82;21081;-76
2022/06/22 07:44:34;;;;;;;0.75;0.50;;;;;;;19.93;56.46;100353.86;1736550;81;21022;-77
2022/06/22 07:47:13;;;;;;;2.60;0.50;;;;;;;20.03;56.17;100355.31;1736315;82;21007;-77
2022/06/22 07:50:02;;;;;;;4.60;0.90;;;;;;;20.10;55.55;100351.22;1736709;81;21106;-77
2022/06/22 07:52:39;;;;;;;;;;;;;;;20.19;55.13;100345.66;1734945;81;21332;-77
2022/06/22 07:55:48;;;;;;;4.62;0.82;;;;;;;20.24;54.17;100350.98;1725445;82;20489;-81
2022/06/22 07:58:40;;;;;;;;;;;;;;;20.35;54.43;100347.48;1739146;81;21026;-78
2022/06/22 08:01:11;;;;;;;3.60;0.90;;;;;;;20.45;53.33;100357.78;1736848;82;20197;-77
2022/06/22 08:03:44;;;;;;;1.62;0.60;;;;;;;20.50;53.39;100348.08;1736664;81;21039;-76
2022/06/22 08:06:19;;;;;;;3.12;0.80;;;;;;;20.57;53.29;100349.81;1765492;80;21126;-77
2022/06/22 08:08:55;;;;;;;4.33;0.80;;;;;;;20.67;52.84;100348.09;1780936;80;21088;-79
2022/06/22 08:11:37;;;;;;;1.98;0.70;;;;;;;20.78;52.80;100355.22;1778802;80;21053;-77
2022/06/22 08:14:28;;;;;;;2.58;0.95;;;;;;;20.87;52.39;100338.52;1775754;80;20967;-76
2022/06/22 08:17:02;;;;;;;4.60;1.12;;;;;;;20.90;51.81;100332.94;1737029;80;21049;-77
2022/06/22 08:19:32;;;;;;;2.25;0.80;;;;;;;20.97;51.86;100324.78;1753271;80;21964;-77
2022/06/22 08:22:04;;;;;;;12.93;1.92;;;;;;;21.08;51.63;100319.91;1737049;80;21050;-76
2022/06/22 08:24:36;;;;;;;2.55;0.90;;;;;;;21.15;51.30;100316.62;1753357;80;21460;-76
2022/06/22 08:27:06;;;;;;;4.42;0.90;;;;;;;21.23;51.04;100317.79;1737252;80;20991;-76
2022/06/22 08:29:34;;;;;;;2.10;0.70;;;;;;;21.31;50.48;100319.33;1746038;80;21026;-77
2022/06/22 08:32:12;;;;;;;4.40;1.40;;;;;;;21.34;50.09;100312.44;1758538;80;21536;-76
2022/06/22 08:34:45;;;;;;;2.75;0.78;;;;;;;21.37;50.23;100314.38;1741555;80;20913;-79
2022/06/22 08:37:29;;;;;;;1.35;0.70;;;;;;;21.44;49.93;100316.03;1760534;80;20875;-78
2022/06/22 08:40:10;;;;;;;3.45;0.95;;;;;;;21.53;49.49;100309.95;1737381;80;21089;-77
2022/06/22 08:42:55;;;;;;;1.85;0.62;;;;;;;21.63;49.32;100306.49;1737307;80;21081;-77
2022/06/22 08:46:01;;;;;;;1.22;0.57;;;;;;;21.73;49.05;100301.58;1726684;80;21929;-76
2022/06/22 08:48:49;;;;;;;2.58;0.98;;;;;;;21.84;48.92;100306.00;1737130;80;21628;-76
2022/06/22 08:51:42;;;;;;;2.10;0.65;;;;;;;21.96;48.64;100304.94;1737878;80;21599;-76
2022/06/22 08:54:55;;;;;;;2.92;0.78;;;;;;;22.10;48.16;100309.58;1747237;80;21069;-77
2022/06/22 08:57:50;;;;;;;2.10;0.60;;;;;;;22.21;47.95;100301.51;1744270;80;21033;-78
2022/06/22 09:00:26;;;;;;;2.52;0.95;;;;;;;22.41;47.57;100301.92;1737149;80;21215;-77
2022/06/22 09:03:11;;;;;;;2.35;0.78;;;;;;;22.58;47.66;100301.77;1735976;80;21069;-77
2022/06/22 09:06:31;;;;;;;2.85;0.70;;;;;;;22.67;46.88;100301.45;1732250;80;21015;-77
2022/06/22 09:09:21;;;;;;;3.33;0.90;;;;;;;22.71;46.41;100289.00;1722932;83;21022;-77
2022/06/22 09:12:08;;;;;;;2.15;0.80;;;;;;;22.79;46.23;100289.66;1720829;83;21059;-78
2022/06/22 09:15:20;;;;;;;4.45;0.88;;;;;;;22.90;46.39;100286.86;1722350;83;21142;-77
2022/06/22 09:17:58;;;;;;;4.20;0.90;;;;;;;23.06;46.30;100289.52;1722811;83;21098;-77
2022/06/22 09:20:56;;;;;;;3.12;0.78;;;;;;;23.22;45.59;100284.42;1722253;83;21094;-77
2022/06/22 09:24:08;;;;;;;3.27;0.80;;;;;;;23.35;45.02;100282.81;1722970;83;21095;-77
2022/06/22 09:27:04;;;;;;;2.08;0.88;;;;;;;23.38;44.81;100279.34;1703078;83;21083;-80
2022/06/22 09:30:17;;;;;;;3.20;0.88;;;;;;;23.47;45.09;100280.82;1712670;83;21240;-80
2022/06/22 09:33:08;;;;;;;3.60;0.80;;;;;;;23.56;44.64;100282.16;1719095;83;21009;-78
2022/06/22 09:36:04;;;;;;;2.52;0.78;;;;;;;23.72;44.54;100278.93;1710926;83;21136;-78
2022/06/22 09:39:19;;;;;;;4.80;1.00;;;;;;;23.86;44.24;100279.43;1717553;83;21215;-78
2022/06/22 09:42:24;;;;;;;2.17;0.78;;;;;;;24.07;44.22;100291.28;1722805;83;21070;-78
2022/06/22 09:45:21;;;;;;;2.35;0.68;;;;;;;24.30;43.30;100288.56;1767758;79;21116;-77
2022/06/22 09:48:12;;;;;;;3.75;1.00;;;;;;;24.42;42.86;100295.42;1773326;79;21002;-80
2022/06/22 09:51:22;;;;;;;2.62;0.68;;;;;;;24.55;42.68;100297.77;1755474;79;21065;-78
2022/06/22 09:57:26;;;;;;;2.47;0.60;;;;;;;24.45;41.80;100297.00;1759696;80;21168;-77
2022/06/22 10:00:10;;;;;;;3.08;0.90;;;;;;;24.28;41.21;100293.25;1771884;80;21110;-78
2022/06/22 10:03:08;;;;;;;2.85;0.90;;;;;;;24.29;41.45;100286.05;1756029;80;21601;-77
2022/06/22 10:05:59;;;;;;;1.90;0.68;;;;;;;24.39;41.29;100280.16;1775026;80;21002;-78
2022/06/22 10:08:57;;;;;;;2.25;0.82;;;;;;;24.51;41.19;100278.98;1773756;78;21021;-77
2022/06/22 10:11:50;;;;;;;2.35;0.90;;;;;;;24.60;40.84;100281.25;1776156;80;21084;-78
2022/06/22 10:14:46;;;;;;;2.58;0.60;;;;;;;24.69;40.57;100269.62;1786869;80;21096;-78
2022/06/22 10:17:53;;;;;;;2.92;0.82;;;;;;;24.77;40.19;100263.00;1754382;80;21054;-77
2022/06/22 10:20:51;;;;;;;3.70;0.80;;;;;;;24.91;40.48;100250.44;1706800;82;21142;-77
2022/06/22 10:24:03;;;;;;;3.30;0.80;;;;;;;25.12;40.07;100246.08;1738095;81;21044;-77
2022/06/22 10:26:57;;;;;;;2.05;0.72;;;;;;;25.31;39.68;100242.42;1726298;82;21012;-77
2022/06/22 10:30:01;;;;;;;1.57;0.60;;;;;;;25.56;39.60;100239.41;1736598;82;21132;-78
2022/06/22 10:32:46;;;;;;;2.67;0.57;;;;;;;25.78;39.20;100250.63;1710773;82;21073;-77
2022/06/22 10:35:44;;;;;;;2.02;0.70;;;;;;;25.95;38.86;100248.89;1738529;82;21503;-79
2022/06/22 10:38:41;;;;;;;4.05;1.00;;;;;;;26.25;38.50;100248.87;1753057;81;21587;-77
2022/06/22 10:47:53;;;;;;;3.45;0.68;;;;;;;27.57;38.02;100256.98;1700436;82;21252;-78
2022/06/22 10:50:37;;;;;;;3.37;0.75;;;;;;;28.07;37.45;100248.80;1705442;81;21008;-79
2022/06/22 10:53:37;;;;;;;2.52;0.82;;;;;;;28.65;36.96;100244.31;1714545;81;21479;-78
2022/06/22 10:56:35;;;;;;;3.00;0.65;;;;;;;29.09;36.31;100238.81;1785424;80;21049;-78
2022/06/22 10:59:38;;;;;;;3.17;0.53;;;;;;;29.40;35.95;100231.95;1742906;78;21128;-80
2022/06/22 11:02:48;;;;;;;1.82;0.70;;;;;;;29.67;35.35;100234.59;1768414;80;21044;-78
2022/06/22 11:05:54;;;;;;;1.62;0.60;;;;;;;30.00;34.80;100235.05;1776293;79;21066;-80
2022/06/22 11:08:39;;;;;;;2.70;0.53;;;;;;;30.22;33.99;100234.64;1763526;79;21484;-81
2022/06/22 11:11:20;;;;;;;3.15;0.53;;;;;;;30.23;33.26;100228.20;1760797;80;21109;-79
2022/06/22 11:14:05;;;;;;;2.12;0.70;;;;;;;30.33;32.84;100231.14;1773043;80;21799;-78
2022/06/22 11:16:43;;;;;;;4.78;0.70;;;;;;;30.54;32.89;100228.48;1737214;80;21006;-78
2022/06/22 11:19:37;;;;;;;1.57;0.67;;;;;;;30.82;32.00;100236.70;1729957;80;21054;-79
2022/06/22 11:22:25;;;;;;;1.57;0.60;;;;;;;30.64;31.32;100226.28;1729799;80;20992;-78
2022/06/22 11:25:10;;;;;;;3.80;0.70;;;;;;;30.67;31.37;100231.30;1739108;80;21012;-76
2022/06/22 11:30:58;;;;;;;4.40;0.70;;;;;;;30.94;31.16;100245.14;1739358;80;22358;-76
2022/06/22 11:33:57;;;;;;;2.60;0.70;;;;;;;31.17;30.84;100244.93;1743857;80;21524;-76
2022/06/22 11:36:55;;;;;;;1.98;0.60;;;;;;;31.36;30.53;100248.88;1741868;80;21485;-76
2022/06/22 11:39:45;;;;;;;1.15;0.50;;;;;;;31.54;30.35;100248.39;1753639;80;22218;-75
2022/06/22 11:42:42;;;;;;;2.37;0.68;;;;;;;31.77;30.07;100248.95;1746558;80;21786;-80
2022/06/22 11:45:58;;;;;;;1.55;0.50;;;;;;;31.67;29.55;100250.34;1763767;80;21049;-76
2022/06/22 11:48:34;;;;;;;1.22;0.50;;;;;;;31.14;29.44;100256.15;1730572;80;21560;-76
2022/06/22 11:51:35;;;;;;;2.65;0.75;;;;;;;30.44;28.72;100246.34;1739594;80;21056;-77
2022/06/22 11:54:38;;;;;;;1.60;0.57;;;;;;;29.84;28.73;100243.34;1735718;80;21180;-76
2022/06/22 11:57:19;;;;;;;2.40;0.60;;;;;;;29.32;28.91;100246.39;1754996;80;21065;-76
2022/06/22 12:00:07;;;;;;;2.08;0.60;;;;;;;29.05;29.51;100249.14;1753287;80;21107;-77
2022/06/22 12:03:19;;;;;;;2.87;0.68;;;;;;;29.27;30.13;100249.31;1736832;80;21051;-77
2022/06/22 12:06:21;;;;;;;1.77;0.70;;;;;;;29.24;29.95;100250.51;1747296;80;21069;-77
2022/06/22 12:09:05;;;;;;;2.52;0.75;;;;;;;29.42;30.22;100246.63;1786434;80;21038;-77
2022/06/22 12:12:05;;;;;;;1.05;0.40;;;;;;;29.79;30.05;100239.01;1788822;80;21867;-77
2022/06/22 12:15:06;;;;;;;0.75;0.50;;;;;;;30.13;29.91;100239.80;1750262;80;21634;-79
2022/06/22 12:18:04;;;;;;;2.83;0.55;;;;;;;30.47;29.50;100237.54;1775666;80;21013;-77
2022/06/22 12:20:55;;;;;;;1.40;0.60;;;;;;;30.58;29.27;100237.88;1781219;80;21459;-77
2022/06/22 12:23:43;;;;;;;1.47;0.65;;;;;;;30.50;29.12;100232.58;1769460;80;21500;-75
2022/06/22 12:26:47;;;;;;;1.82;0.70;;;;;;;30.60;28.94;100234.98;1710894;78;21121;-75
2022/06/22 12:29:58;;;;;;;;;;;;;;;;;;;;;
2022/06/22 12:32:29;;;;;;;4.58;0.60;;;;;;;30.62;29.02;100233.77;1774919;80;20994;-76
2022/06/22 12:35:19;;;;;;;1.95;0.60;;;;;;;30.84;28.72;100225.67;1769669;80;21527;-75
2022/06/22 12:38:14;;;;;;;2.25;0.45;;;;;;;30.98;28.66;100221.23;1761628;78;21073;-76
2022/06/22 12:41:03;;;;;;;2.87;0.72;;;;;;;31.26;28.35;100211.28;1767243;80;20998;-75
2022/06/22 12:43:50;;;;;;;1.05;0.47;;;;;;;31.33;28.31;100198.61;1751851;80;21029;-79
2022/06/22 12:46:38;;;;;;;1.12;0.60;;;;;;;31.12;28.00;100205.41;1742540;80;21074;-77
2022/06/22 12:49:28;;;;;;;1.92;0.50;;;;;;;30.99;27.86;100202.09;1759202;80;21443;-80
2022/06/22 12:52:21;;;;;;;1.67;0.60;;;;;;;31.02;27.67;100200.35;1750557;80;21006;-77
2022/06/22 12:55:15;;;;;;;1.72;0.50;;;;;;;31.07;27.24;100198.42;1788562;80;21104;-77
2022/06/22 12:57:50;;;;;;;1.35;0.50;;;;;;;30.93;26.85;100194.77;1786638;80;20993;-77
2022/06/22 13:00:21;;;;;;;1.57;0.50;;;;;;;30.88;26.83;100192.63;1757346;80;21472;-77
2022/06/22 13:02:52;;;;;;;2.02;0.70;;;;;;;30.95;26.94;100187.79;1741833;80;21054;-76
2022/06/22 13:05:23;;;;;;;3.98;0.60;;;;;;;31.05;27.28;100190.48;1741404;80;21042;-77